Time;durP1;ratioP1;P1;durP2;ratioP2;P2;SDS_P1;SDS_P2;PMS_P1;PMS_P2;Temp;Humidity;BMP_temperature;BMP_pressure;BME280_temperature;BME280_humidity;BME280_pressure;Samples;Min_cycle;Max_cycle;Signal;HPM_P1;HPM_P2
2023/09/01 00:02:14;;;;;;;;;;;;;;;13.37;100.00;96534.92;110379;1278;22434;-91
2023/09/01 00:04:41;;;;;;;;;;;;;;;13.42;100.00;96535.37;110316;1275;124418;-92
2023/09/01 00:07:08;;;;;;;;;;;;;;;13.47;100.00;96529.39;110388;1278;22466;-91
2023/09/01 00:09:40;;;;;;;;;;;;;;;13.49;100.00;96527.83;110377;1278;22436;-92
2023/09/01 00:12:27;;;;;;;;;;;;;;;13.51;100.00;96527.62;110295;1275;125105;-91
2023/09/01 00:15:06;;;;;;;;;;;;;;;13.52;100.00;96523.45;110423;1272;22406;-92
2023/09/01 00:17:40;;;;;;;;;;;;;;;13.52;100.00;96527.30;110282;1275;125289;-91
2023/09/01 00:20:07;;;;;;;;;;;;;;;13.53;100.00;96527.39;110412;1268;22424;-91
2023/09/01 00:22:34;;;;;;;;;;;;;;;13.52;100.00;96524.17;110300;1275;125419;-92
2023/09/01 00:25:17;;;;;;;;;;;;;;;13.53;100.00;96520.88;110320;1273;22434;-92
2023/09/01 00:27:55;;;;;;;;;;;;;;;13.51;100.00;96523.00;110406;1272;22431;-91
2023/09/01 00:30:27;;;;;;;;;;;;;;;13.49;100.00;96520.16;110071;1275;124769;-91
2023/09/01 00:33:00;;;;;;;;;;;;;;;13.46;100.00;96528.19;110428;1279;22460;-92
2023/09/01 00:35:49;;;;;;;;;;;;;;;13.41;100.00;96528.11;110272;1272;125167;-91
2023/09/01 00:38:16;;;;;;;;;;;;;;;13.38;100.00;96528.02;110304;1273;22408;-93
2023/09/01 00:40:52;;;;;;;;;;;;;;;13.32;100.00;96533.67;110305;1275;125298;-90
2023/09/01 00:43:19;;;;;;;;;;;;;;;13.28;100.00;96537.64;110387;1279;22479;-92
2023/09/01 00:45:48;;;;;;;;;;;;;;;13.25;100.00;96537.75;110380;1279;22406;-91
2023/09/01 00:48:16;;;;;;;;;;;;;;;13.23;100.00;96541.27;110301;1278;125014;-91
2023/09/01 00:51:02;;;;;;;;;;;;;;;13.22;100.00;96546.21;110176;1272;22453;-91
2023/09/01 00:53:37;;;;;;;;;;;;;;;13.24;100.00;96547.95;110235;1272;124944;-91
2023/09/01 00:56:11;;;;;;;;;;;;;;;13.27;100.00;96549.96;110419;1272;22416;-91
2023/09/01 00:58:38;;;;;;;;;;;;;;;13.29;100.00;96548.00;110275;1279;125589;-92
2023/09/01 01:01:06;;;;;;;;;;;;;;;13.31;100.00;96547.77;110207;1274;22457;-91
2023/09/01 01:03:36;;;;;;;;;;;;;;;13.33;100.00;96544.16;110386;1279;22447;-91
2023/09/01 01:06:32;;;;;;;;;;;;;;;13.35;100.00;96546.03;110318;1279;124969;-91
2023/09/01 01:09:26;;;;;;;;;;;;;;;13.36;100.00;96545.48;110348;1271;22913;-92
2023/09/01 01:12:12;;;;;;;;;;;;;;;13.38;100.00;96543.92;110253;1279;125092;-91
2023/09/01 01:14:47;;;;;;;;;;;;;;;13.40;100.00;96547.25;110502;1273;23134;-92
2023/09/01 01:17:20;;;;;;;;;;;;;;;13.44;100.00;96550.55;110312;1275;125249;-91
2023/09/01 01:19:58;;;;;;;;;;;;;;;13.47;100.00;96554.17;110408;1278;23120;-92
2023/09/01 01:23:04;;;;;;;;;;;;;;;13.50;100.00;96555.20;110230;1279;125443;-91
2023/09/01 01:25:51;;;;;;;;;;;;;;;13.52;100.00;96559.52;110391;1279;22436;-92
2023/09/01 01:28:22;;;;;;;;;;;;;;;13.51;100.00;96556.06;110320;1275;125504;-92
2023/09/01 01:30:50;;;;;;;;;;;;;;;13.51;100.00;96551.72;110263;1277;23200;-92
2023/09/01 01:33:57;;;;;;;;;;;;;;;13.52;100.00;96551.84;110382;1277;22446;-92
2023/09/01 01:36:25;;;;;;;;;;;;;;;13.54;100.00;96548.79;110196;1274;124578;-92
2023/09/01 01:38:59;;;;;;;;;;;;;;;13.55;100.00;96543.05;110386;1279;22444;-90
2023/09/01 01:41:52;;;;;;;;;;;;;;;13.55;100.00;96550.92;110267;1276;124996;-92
2023/09/01 01:44:26;;;;;;;;;;;;;;;13.55;100.00;96550.00;110401;1272;22418;-92
2023/09/01 01:46:56;;;;;;;;;;;;;;;13.57;100.00;96544.09;110265;1279;125089;-92
2023/09/01 01:49:23;;;;;;;;;;;;;;;13.57;100.00;96545.07;110274;1275;22419;-92
2023/09/01 01:51:51;;;;;;;;;;;;;;;13.53;100.00;96545.58;110175;1273;22420;-91
2023/09/01 01:54:19;;;;;;;;;;;;;;;13.50;100.00;96547.89;110338;1275;125406;-92
2023/09/01 01:57:10;;;;;;;;;;;;;;;13.48;100.00;96548.08;110398;1271;22413;-92
2023/09/01 01:59:39;;;;;;;;;;;;;;;13.47;100.00;96552.89;110374;1272;125432;-91
2023/09/01 02:02:08;;;;;;;;;;;;;;;13.47;100.00;96553.86;110341;1279;22418;-92
2023/09/01 02:04:38;;;;;;;;;;;;;;;13.46;99.94;96554.17;110333;1272;125134;-91
2023/09/01 02:07:25;;;;;;;;;;;;;;;13.48;100.00;96556.78;110430;1278;22438;-92
2023/09/01 02:09:56;;;;;;;;;;;;;;;13.48;100.00;96560.89;110407;1272;22393;-91
2023/09/01 02:12:30;;;;;;;;;;;;;;;13.43;100.00;96556.02;110419;1279;22419;-91
2023/09/01 02:14:58;;;;;;;;;;;;;;;13.43;100.00;96559.36;110412;1275;22419;-92
2023/09/01 02:17:25;;;;;;;;;;;;;;;13.42;100.00;96558.11;110288;1275;125038;-92
2023/09/01 02:19:53;;;;;;;;;;;;;;;13.43;100.00;96564.57;110203;1278;22470;-92
2023/09/01 02:22:20;;;;;;;;;;;;;;;13.43;100.00;96565.33;110089;1272;125174;-91
2023/09/01 02:24:53;;;;;;;;;;;;;;;13.46;100.00;96567.02;110406;1275;22369;-93
2023/09/01 02:27:28;;;;;;;;;;;;;;;13.51;100.00;96560.63;110268;1271;22396;-91
2023/09/01 02:29:55;;;;;;;;;;;;;;;13.54;100.00;96562.20;110345;1273;124811;-91
2023/09/01 02:32:41;;;;;;;;;;;;;;;13.54;100.00;96558.48;109674;1279;945337;-92
2023/09/01 02:35:11;;;;;;;;;;;;;;;13.55;100.00;96559.08;110293;1272;125543;-92
2023/09/01 02:37:58;;;;;;;;;;;;;;;13.57;100.00;96557.27;110387;1273;22429;-91
2023/09/01 02:40:38;;;;;;;;;;;;;;;13.58;100.00;96557.27;110347;1273;125350;-91
2023/09/01 02:43:25;;;;;;;;;;;;;;;13.57;100.00;96558.11;110392;1273;22393;-92
2023/09/01 02:45:52;;;;;;;;;;;;;;;13.56;100.00;96559.12;110435;1273;23372;-91
2023/09/01 02:48:26;;;;;;;;;;;;;;;13.58;100.00;96555.75;110271;1271;124645;-91
2023/09/01 02:50:54;;;;;;;;;;;;;;;13.64;100.00;96550.66;110408;1279;23196;-92
2023/09/01 02:53:33;;;;;;;;;;;;;;;13.65;100.00;96556.77;110290;1276;125317;-92
2023/09/01 02:56:23;;;;;;;;;;;;;;;13.65;100.00;96550.45;110329;1279;22467;-91
2023/09/01 02:58:52;;;;;;;;;;;;;;;13.66;100.00;96553.31;110316;1272;125218;-91
2023/09/01 03:01:20;;;;;;;;;;;;;;;13.66;100.00;96555.92;110332;1279;22432;-91
2023/09/01 03:03:49;;;;;;;;;;;;;;;13.67;100.00;96553.94;110399;1279;22417;-91
2023/09/01 03:06:36;;;;;;;;;;;;;;;13.66;100.00;96551.52;110322;1273;22421;-91
2023/09/01 03:09:09;;;;;;;;;;;;;;;13.64;100.00;96548.92;110336;1272;22443;-92
2023/09/01 03:11:49;;;;;;;;;;;;;;;13.62;100.00;96552.94;110262;1279;125831;-92
2023/09/01 03:14:17;;;;;;;;;;;;;;;13.59;100.00;96555.14;110339;1273;22448;-92
2023/09/01 03:16:57;;;;;;;;;;;;;;;13.56;100.00;96560.41;110283;1275;125145;-92
2023/09/01 03:19:43;;;;;;;;;;;;;;;13.53;100.00;96560.92;110256;1273;22433;-92
2023/09/01 03:22:13;;;;;;;;;;;;;;;13.50;100.00;96561.95;110088;1278;125147;-91
2023/09/01 03:25:00;;;;;;;;;;;;;;;13.47;99.98;96561.45;110333;1277;22455;-91
2023/09/01 03:27:29;;;;;;;;;;;;;;;13.44;99.76;96566.50;110427;1273;23154;-91
2023/09/01 03:29:58;;;;;;;;;;;;;;;13.42;98.95;96565.29;110263;1279;124674;-92
2023/09/01 03:32:27;;;;;;;;;;;;;;;13.42;99.44;96566.61;110354;1279;22435;-93
2023/09/01 03:35:14;;;;;;;;;;;;;;;13.41;99.88;96568.34;109778;1280;125256;-92
2023/09/01 03:37:56;;;;;;;;;;;;;;;13.40;99.17;96572.23;109846;1282;23162;-93
2023/09/01 03:40:25;;;;;;;;;;;;;;;13.40;99.78;96571.74;109742;1286;125017;-91
2023/09/01 03:42:52;;;;;;;;;;;;;;;13.39;99.99;96575.73;109791;1287;22393;-92
2023/09/01 03:45:19;;;;;;;;;;;;;;;13.36;99.96;96575.08;109864;1285;22432;-91
2023/09/01 03:47:47;;;;;;;;;;;;;;;13.33;100.00;96577.73;109767;1280;125003;-92
2023/09/01 03:50:34;;;;;;;;;;;;;;;13.27;100.00;96569.23;109860;1280;23348;-92
2023/09/01 03:53:03;;;;;;;;;;;;;;;13.20;100.00;96568.02;109756;1285;124878;-92
2023/09/01 03:55:50;;;;;;;;;;;;;;;13.16;100.00;96569.86;109875;1286;22440;-92
2023/09/01 03:58:37;;;;;;;;;;;;;;;13.15;100.00;96569.58;109819;1285;125051;-91
2023/09/01 04:01:25;;;;;;;;;;;;;;;13.12;100.00;96569.53;109939;1280;23199;-91
2023/09/01 04:04:12;;;;;;;;;;;;;;;13.06;100.00;96568.19;109809;1282;125057;-92
2023/09/01 04:06:40;;;;;;;;;;;;;;;13.02;100.00;96565.49;109855;1287;22436;-91
2023/09/01 04:09:08;;;;;;;;;;;;;;;12.97;99.94;96568.39;109872;1286;22424;-92
2023/09/01 04:11:36;;;;;;;;;;;;;;;12.95;100.00;96565.30;109768;1286;124817;-92
2023/09/01 04:14:23;;;;;;;;;;;;;;;12.93;100.00;96567.06;109835;1284;22440;-92
2023/09/01 04:17:09;;;;;;;;;;;;;;;12.91;100.00;96573.98;109781;1281;126380;-92
2023/09/01 04:19:37;;;;;;;;;;;;;;;12.89;100.00;96570.94;109824;1287;22428;-92
2023/09/01 04:22:24;;;;;;;;;;;;;;;12.87;100.00;96573.48;109717;1287;125377;-92
2023/09/01 04:25:14;;;;;;;;;;;;;;;12.86;100.00;96570.44;109823;1280;22451;-92
2023/09/01 04:27:41;;;;;;;;;;;;;;;12.85;100.00;96565.16;109835;1285;22528;-91
2023/09/01 04:30:29;;;;;;;;;;;;;;;12.84;100.00;96564.70;109758;1284;124953;-92
2023/09/01 04:33:17;;;;;;;;;;;;;;;12.82;100.00;96571.35;109825;1287;22465;-92
2023/09/01 04:36:04;;;;;;;;;;;;;;;12.80;100.00;96571.27;109736;1286;125547;-92
2023/09/01 04:38:34;;;;;;;;;;;;;;;12.80;100.00;96571.27;109847;1286;23096;-92
2023/09/01 04:41:06;;;;;;;;;;;;;;;12.82;100.00;96571.07;109750;1284;125146;-91
2023/09/01 04:43:33;;;;;;;;;;;;;;;12.83;100.00;96573.60;109867;1283;22630;-91
2023/09/01 04:46:20;;;;;;;;;;;;;;;12.83;100.00;96581.86;109773;1286;125485;-90
2023/09/01 04:48:47;;;;;;;;;;;;;;;12.85;100.00;96588.10;109807;1287;22437;-91
2023/09/01 04:51:33;;;;;;;;;;;;;;;12.88;100.00;96588.45;109808;1281;22523;-92
2023/09/01 04:54:01;;;;;;;;;;;;;;;12.90;100.00;96587.63;109724;1286;124955;-90
2023/09/01 04:56:28;;;;;;;;;;;;;;;12.93;100.00;96593.70;109779;1286;23077;-92
2023/09/01 04:58:57;;;;;;;;;;;;;;;12.93;99.76;96595.23;109754;1286;125771;-91
2023/09/01 05:01:44;;;;;;;;;;;;;;;12.97;100.00;96599.48;109885;1284;22476;-92
2023/09/01 05:04:18;;;;;;;;;;;;;;;13.01;100.00;96600.40;109718;1287;124921;-92
2023/09/01 05:06:44;;;;;;;;;;;;;;;13.04;99.98;96602.45;109762;1286;23161;-91
2023/09/01 05:09:15;;;;;;;;;;;;;;;13.06;100.00;96600.25;109841;1286;22406;-90
2023/09/01 05:11:43;;;;;;;;;;;;;;;13.05;100.00;96599.80;109780;1279;125323;-91
2023/09/01 05:14:30;;;;;;;;;;;;;;;13.06;100.00;96596.59;109873;1280;22413;-91
2023/09/01 05:17:09;;;;;;;;;;;;;;;13.09;99.85;96592.98;109761;1282;125439;-92
2023/09/01 05:19:38;;;;;;;;;;;;;;;13.14;99.97;96591.89;109901;1280;23288;-91
2023/09/01 05:22:05;;;;;;;;;;;;;;;13.18;100.00;96588.34;109846;1282;22482;-90
2023/09/01 05:24:53;;;;;;;;;;;;;;;13.20;100.00;96588.73;109892;1281;23301;-91
2023/09/01 05:27:40;;;;;;;;;;;;;;;13.22;100.00;96599.97;109869;1279;23017;-91
2023/09/01 05:30:26;;;;;;;;;;;;;;;13.26;100.00;96601.31;109745;1279;125417;-92
2023/09/01 05:32:56;;;;;;;;;;;;;;;13.30;100.00;96605.09;109836;1285;23131;-92
2023/09/01 05:35:24;;;;;;;;;;;;;;;13.35;100.00;96608.11;109753;1283;125431;-92
2023/09/01 05:38:11;;;;;;;;;;;;;;;13.38;100.00;96614.83;109839;1286;22427;-92
2023/09/01 05:40:38;;;;;;;;;;;;;;;13.41;100.00;96621.02;109739;1283;125310;-91
2023/09/01 05:43:05;;;;;;;;;;;;;;;13.46;100.00;96624.41;109855;1279;22434;-91
2023/09/01 05:45:51;;;;;;;;;;;;;;;13.52;99.84;96625.85;109837;1282;22434;-91
2023/09/01 05:48:19;;;;;;;;;;;;;;;13.60;99.57;96633.08;109685;1287;125259;-91
2023/09/01 05:50:46;;;;;;;;;;;;;;;13.68;99.62;96637.77;109775;1283;22453;-92
2023/09/01 05:53:27;;;;;;;;;;;;;;;13.75;99.44;96638.32;109698;1283;124772;-92
2023/09/01 05:55:54;;;;;;;;;;;;;;;13.81;98.55;96634.92;109823;1286;22505;-91
2023/09/01 05:58:22;;;;;;;;;;;;;;;13.87;98.82;96634.40;109766;1279;125125;-92
2023/09/01 06:00:49;;;;;;;;;;;;;;;13.93;100.00;96632.23;109858;1273;23236;-91
2023/09/01 06:03:18;;;;;;;;;;;;;;;13.94;100.00;96634.45;109909;1280;22424;-91
2023/09/01 06:05:46;;;;;;;;;;;;;;;13.96;99.60;96634.36;109769;1286;125160;-91
2023/09/01 06:08:24;;;;;;;;;;;;;;;13.98;98.88;96639.40;109892;1280;23096;-92
2023/09/01 06:11:02;;;;;;;;;;;;;;;13.98;98.64;96640.64;109748;1286;125877;-92
2023/09/01 06:13:30;;;;;;;;;;;;;;;13.99;98.69;96645.20;109893;1285;22544;-91
2023/09/01 06:15:58;;;;;;;;;;;;;;;13.99;98.20;96646.40;109853;1285;22436;-92
2023/09/01 06:18:26;;;;;;;;;;;;;;;13.99;98.17;96645.04;109730;1286;124891;-91
2023/09/01 06:20:53;;;;;;;;;;;;;;;14.01;96.84;96649.43;109840;1286;22524;-91
2023/09/01 06:23:22;;;;;;;;;;;;;;;14.02;96.78;96649.52;109742;1286;125779;-92
2023/09/01 06:25:51;;;;;;;;;;;;;;;14.04;96.40;96651.80;109864;1284;22431;-92
2023/09/01 06:28:21;;;;;;;;;;;;;;;14.06;94.85;96648.84;109779;1280;125057;-91
2023/09/01 06:30:49;;;;;;;;;;;;;;;14.09;94.83;96648.60;109842;1286;22553;-92
2023/09/01 06:33:19;;;;;;;;;;;;;;;14.11;94.56;96652.30;109803;1287;23145;-91
2023/09/01 06:36:06;;;;;;;;;;;;;;;14.14;94.03;96653.02;109610;1283;125762;-91
2023/09/01 06:38:32;;;;;;;;;;;;;;;14.17;94.09;96654.55;109797;1286;22454;-92
2023/09/01 06:41:01;;;;;;;;;;;;;;;14.20;93.86;96649.08;109690;1280;125211;-91
2023/09/01 06:43:47;;;;;;;;;;;;;;;14.22;93.66;96643.57;109809;1286;22475;-91
2023/09/01 06:46:15;;;;;;;;;;;;;;;14.25;93.94;96645.10;109870;1280;23139;-92
2023/09/01 06:48:43;;;;;;;;;;;;;;;14.28;94.29;96642.33;109748;1276;124379;-92
2023/09/01 06:51:17;;;;;;;;;;;;;;;14.31;96.15;96640.29;109848;1280;23203;-92
2023/09/01 06:54:05;;;;;;;;;;;;;;;14.33;96.87;96641.43;109815;1280;124653;-91
2023/09/01 06:56:31;;;;;;;;;;;;;;;14.34;95.53;96635.92;109787;1282;23100;-91
2023/09/01 06:58:58;;;;;;;;;;;;;;;14.36;94.50;96635.88;109643;1287;126366;-91
2023/09/01 07:01:27;;;;;;;;;;;;;;;14.38;94.39;96642.35;109882;1286;22409;-92
2023/09/01 07:04:15;;;;;;;;;;;;;;;14.40;93.19;96641.88;109836;1286;22443;-91
2023/09/01 07:06:42;;;;;;;;;;;;;;;14.44;92.91;96642.82;109732;1286;124427;-91
2023/09/01 07:09:10;;;;;;;;;;;;;;;14.47;94.53;96642.02;109830;1281;22431;-91
2023/09/01 07:11:37;;;;;;;;;;;;;;;14.48;95.03;96641.34;109742;1279;125422;-91
2023/09/01 07:14:04;;;;;;;;;;;;;;;14.50;96.45;96643.70;109795;1280;22662;-91
2023/09/01 07:16:31;;;;;;;;;;;;;;;14.51;95.71;96647.56;109788;1286;125079;-91
2023/09/01 07:18:58;;;;;;;;;;;;;;;14.52;94.67;96649.61;109853;1286;23266;-91
2023/09/01 07:21:25;;;;;;;;;;;;;;;14.56;94.78;96647.91;109839;1285;23139;-92
2023/09/01 07:23:55;;;;;;;;;;;;;;;14.61;94.63;96645.05;109736;1280;124964;-91
2023/09/01 07:26:23;;;;;;;;;;;;;;;14.65;93.78;96646.73;109858;1280;22415;-91
2023/09/01 07:28:52;;;;;;;;;;;;;;;14.71;93.60;96649.94;109744;1287;126499;-92
2023/09/01 07:31:19;;;;;;;;;;;;;;;14.77;92.56;96647.48;109780;1283;22417;-91
2023/09/01 07:33:49;;;;;;;;;;;;;;;14.83;92.86;96647.05;109772;1282;22453;-90
2023/09/01 07:36:15;;;;;;;;;;;;;;;14.89;92.40;96645.27;109660;1286;124935;-91
2023/09/01 07:38:43;;;;;;;;;;;;;;;14.98;91.82;96648.85;109849;1286;22399;-91
2023/09/01 07:41:18;;;;;;;;;;;;;;;15.08;90.34;96653.30;109758;1286;125543;-92
2023/09/01 07:43:45;;;;;;;;;;;;;;;15.18;90.54;96656.60;109880;1280;22494;-92
2023/09/01 07:46:33;;;;;;;;;;;;;;;15.31;90.34;96660.89;109798;1280;124805;-91
2023/09/01 07:49:06;;;;;;;;;;;;;;;15.42;90.35;96659.02;109782;1287;23121;-92
2023/09/01 07:51:34;;;;;;;;;;;;;;;15.50;88.91;96658.10;109829;1280;22526;-91
2023/09/01 07:54:02;;;;;;;;;;;;;;;15.57;89.51;96660.66;109744;1279;124793;-91
2023/09/01 07:56:31;;;;;;;;;;;;;;;15.64;89.78;96665.36;109867;1285;22447;-92
2023/09/01 07:58:58;;;;;;;;;;;;;;;15.68;88.34;96665.50;109752;1280;125332;-92
2023/09/01 08:01:33;;;;;;;;;;;;;;;15.73;87.92;96667.77;109822;1280;22418;-91
2023/09/01 08:04:00;;;;;;;;;;;;;;;15.76;87.60;96668.04;109799;1287;23417;-91
2023/09/01 08:06:30;;;;;;;;;;;;;;;15.80;87.33;96669.30;109705;1280;125037;-91
2023/09/01 08:08:57;;;;;;;;;;;;;;;15.85;86.94;96671.98;109876;1285;22367;-91
2023/09/01 08:11:26;;;;;;;;;;;;;;;15.90;87.95;96669.48;109779;1279;124832;-92
2023/09/01 08:13:56;;;;;;;;;;;;;;;15.96;87.39;96670.31;109887;1278;22438;-91
2023/09/01 08:16:24;;;;;;;;;;;;;;;16.00;86.79;96669.20;109757;1286;124965;-91
2023/09/01 08:18:51;;;;;;;;;;;;;;;16.04;86.61;96665.95;109868;1280;23118;-91
2023/09/01 08:21:18;;;;;;;;;;;;;;;16.13;86.42;96666.00;109813;1285;22440;-92
2023/09/01 08:23:47;;;;;;;;;;;;;;;16.24;86.10;96669.93;109765;1286;124879;-92
2023/09/01 08:26:14;;;;;;;;;;;;;;;16.36;85.07;96667.04;109835;1280;22503;-91
2023/09/01 08:28:41;;;;;;;;;;;;;;;16.50;85.73;96672.25;109716;1280;125183;-91
2023/09/01 08:31:13;;;;;;;;;;;;;;;16.64;84.58;96669.70;109753;1287;22421;-91
2023/09/01 08:33:41;;;;;;;;;;;;;;;16.70;83.58;96665.89;109763;1286;22449;-91
2023/09/01 08:36:08;;;;;;;;;;;;;;;16.76;85.16;96661.80;109724;1286;126438;-91
2023/09/01 08:38:35;;;;;;;;;;;;;;;16.83;84.95;96663.32;109836;1283;22479;-91
2023/09/01 08:41:06;;;;;;;;;;;;;;;16.90;83.10;96666.77;109727;1279;124727;-91
2023/09/01 08:43:35;;;;;;;;;;;;;;;16.93;81.25;96667.34;109811;1286;22472;-91
2023/09/01 08:46:05;;;;;;;;;;;;;;;16.95;82.05;96672.33;109836;1286;22471;-91
2023/09/01 08:48:33;;;;;;;;;;;;;;;16.96;81.85;96669.73;109752;1279;124839;-92
2023/09/01 08:51:03;;;;;;;;;;;;;;;16.98;82.16;96673.63;109743;1282;22476;-92
2023/09/01 08:53:30;;;;;;;;;;;;;;;17.00;81.22;96672.48;109762;1285;124860;-91
2023/09/01 08:55:57;;;;;;;;;;;;;;;17.03;81.14;96670.30;109773;1287;22444;-91
2023/09/01 08:58:27;;;;;;;;;;;;;;;17.10;81.35;96664.03;109697;1286;124759;-91
2023/09/01 09:00:54;;;;;;;;;;;;;;;17.20;82.26;96661.42;109797;1286;23185;-91
2023/09/01 09:03:29;;;;;;;;;;;;;;;17.31;80.50;96665.45;109875;1280;22422;-92
2023/09/01 09:05:56;;;;;;;;;;;;;;;17.40;81.00;96671.90;109743;1279;124714;-91
2023/09/01 09:08:23;;;;;;;;;;;;;;;17.47;80.09;96672.05;109748;1282;22447;-91
2023/09/01 09:10:52;;;;;;;;;;;;;;;17.49;80.35;96670.33;109729;1284;125140;-92
2023/09/01 09:13:23;;;;;;;;;;;;;;;17.51;81.00;96672.08;109792;1286;23161;-91
2023/09/01 09:16:05;;;;;;;;;;;;;;;17.54;80.73;96672.61;109885;1280;23593;-91
2023/09/01 09:18:32;;;;;;;;;;;;;;;17.57;81.13;96677.73;109692;1278;124987;-91
2023/09/01 09:21:29;;;;;;;;;;;;;;;17.59;80.27;96679.56;109858;1286;22447;-92
2023/09/01 09:23:57;;;;;;;;;;;;;;;17.63;80.98;96683.31;109802;1278;125146;-91
2023/09/01 09:26:25;;;;;;;;;;;;;;;17.67;80.34;96684.56;109740;1283;23096;-92
2023/09/01 09:28:52;;;;;;;;;;;;;;;17.70;80.81;96687.79;109701;1281;125024;-92
2023/09/01 09:31:33;;;;;;;;;;;;;;;17.73;81.16;96686.18;109820;1286;22411;-91
2023/09/01 09:34:10;;;;;;;;;;;;;;;17.74;79.39;96688.33;109829;1286;22436;-91
2023/09/01 09:36:37;;;;;;;;;;;;;;;17.77;80.46;96688.79;109671;1287;124608;-92
2023/09/01 09:39:24;;;;;;;;;;;;;;;17.82;80.79;96690.83;109834;1286;22439;-92
2023/09/01 09:41:51;;;;;;;;;;;;;;;17.92;80.81;96688.96;109769;1279;124768;-91
2023/09/01 09:44:37;;;;;;;;;;;;;;;18.00;80.55;96685.02;109819;1280;23149;-91
2023/09/01 09:47:12;;;;;;;;;;;;;;;18.05;80.71;96687.67;109815;1280;125158;-91
2023/09/01 09:49:39;;;;;;;;;;;;;;;18.10;81.45;96688.23;109868;1286;22421;-91
2023/09/01 09:52:26;;;;;;;;;;;;;;;18.14;81.82;96690.45;109720;1283;125633;-92
2023/09/01 09:54:57;;;;;;;;;;;;;;;18.14;80.69;96695.41;109839;1286;22542;-91
2023/09/01 09:57:23;;;;;;;;;;;;;;;18.12;79.62;96693.34;109796;1280;22443;-91
2023/09/01 10:00:07;;;;;;;;;;;;;;;18.12;79.96;96693.91;109766;1280;125020;-91
2023/09/01 10:02:39;;;;;;;;;;;;;;;18.10;79.62;96691.62;109834;1286;23119;-91
2023/09/01 10:05:26;;;;;;;;;;;;;;;18.09;81.70;96692.37;109658;1283;124949;-91
2023/09/01 10:07:53;;;;;;;;;;;;;;;18.08;83.62;96688.05;109846;1283;22463;-91
2023/09/01 10:10:20;;;;;;;;;;;;;;;18.08;80.97;96688.14;109761;1280;125108;-91
2023/09/01 10:12:47;;;;;;;;;;;;;;;18.07;79.69;96686.21;109822;1285;23233;-92
2023/09/01 10:15:14;;;;;;;;;;;;;;;18.08;78.78;96688.09;109799;1286;23332;-91
2023/09/01 10:17:41;;;;;;;;;;;;;;;18.13;79.59;96685.52;109753;1280;125023;-91
2023/09/01 10:20:08;;;;;;;;;;;;;;;18.24;80.74;96688.94;109755;1286;22442;-91
2023/09/01 10:22:40;;;;;;;;;;;;;;;18.34;80.17;96689.65;109696;1280;125123;-91
2023/09/01 10:25:16;;;;;;;;;;;;;;;18.41;78.90;96693.48;109801;1283;23079;-92
2023/09/01 10:28:16;;;;;;;;;;;;;;;18.45;77.95;96691.86;109853;1286;22752;-91
2023/09/01 10:30:46;;;;;;;;;;;;;;;18.46;77.57;96689.97;109676;1286;23185;-91
2023/09/01 10:33:24;;;;;;;;;;;;;;;18.46;77.26;96688.67;109846;1279;22446;-92
2023/09/01 10:50:02;;;;;;;3.20;2.10;;;;;;;18.82;76.59;96681.61;105265;1307;558624;-91
2023/09/01 10:52:31;;;;;;;4.40;2.30;;;;;;;18.83;76.05;96683.38;107905;1282;175149;-90
2023/09/01 10:55:03;;;;;;;4.00;2.10;;;;;;;18.78;76.73;96681.58;107860;1275;23930;-90
2023/09/01 10:57:49;;;;;;;3.20;2.20;;;;;;;18.75;76.59;96676.92;108005;1277;22600;-90
2023/09/01 11:00:29;;;;;;;3.10;1.90;;;;;;;18.73;77.48;96678.83;107961;1280;23858;-90
2023/09/01 11:03:32;;;;;;;4.20;2.40;;;;;;;18.72;79.45;96678.64;107950;1278;22610;-91
2023/09/01 11:06:01;;;;;;;3.70;2.20;;;;;;;18.71;83.29;96673.45;107989;1277;24208;-91
2023/09/01 11:08:28;;;;;;;4.30;1.90;;;;;;;18.69;81.66;96675.63;108083;1274;22584;-90
2023/09/01 11:10:58;;;;;;;3.60;1.80;;;;;;;18.65;79.83;96678.77;107921;1274;22764;-90
2023/09/01 11:13:26;;;;;;;3.40;2.30;;;;;;;18.63;78.80;96679.76;108175;1282;23359;-91
2023/09/01 11:15:52;;;;;;;4.40;2.10;;;;;;;18.64;79.67;96683.35;107949;1282;23889;-89
2023/09/01 11:18:20;;;;;;;3.30;2.10;;;;;;;18.65;78.87;96678.65;107971;1280;24254;-90
2023/09/01 11:20:47;;;;;;;4.50;2.20;;;;;;;18.65;78.27;96672.97;107950;1283;22494;-90
2023/09/01 11:23:20;;;;;;;4.10;2.10;;;;;;;18.68;78.92;96670.94;107980;1275;22789;-90
2023/09/01 11:26:15;;;;;;;4.90;2.60;;;;;;;18.68;78.06;96677.58;108019;1277;22566;-91
2023/09/01 11:28:41;;;;;;;5.10;2.50;;;;;;;18.65;77.31;96673.98;108143;1276;22488;-91
2023/09/01 11:31:08;;;;;;;3.90;2.60;;;;;;;18.60;76.81;96671.20;108060;1275;22712;-90
2023/09/01 11:33:38;;;;;;;3.90;2.40;;;;;;;18.55;77.17;96676.14;108098;1276;25438;-91
2023/09/01 11:36:07;;;;;;;4.20;2.30;;;;;;;18.54;76.35;96675.53;107960;1281;25423;-90
2023/09/01 11:38:34;;;;;;;3.60;2.70;;;;;;;18.57;77.21;96673.59;107924;1281;22582;-91
2023/09/01 11:41:03;;;;;;;6.50;2.30;;;;;;;18.60;77.36;96675.04;108019;1277;23013;-91
2023/09/01 11:43:31;;;;;;;5.40;2.70;;;;;;;18.64;77.12;96672.63;108038;1281;22614;-90
2023/09/01 11:45:57;;;;;;;4.90;2.10;;;;;;;18.69;77.06;96668.21;108121;1275;22543;-90
2023/09/01 11:48:24;;;;;;;3.80;1.90;;;;;;;18.73;76.72;96664.87;108195;1281;24368;-91
2023/09/01 11:50:53;;;;;;;3.90;2.00;;;;;;;18.77;76.05;96665.75;108156;1277;23916;-90
2023/09/01 11:53:35;;;;;;;4.10;1.80;;;;;;;18.80;75.40;96665.55;108149;1274;22623;-91
2023/09/01 11:56:24;;;;;;;3.70;2.00;;;;;;;18.83;74.62;96660.21;108151;1281;22519;-90
2023/09/01 11:58:55;;;;;;;4.90;1.80;;;;;;;18.87;75.78;96661.82;108012;1281;24088;-90
2023/09/01 12:01:23;;;;;;;;;;;;;;;18.88;74.07;96651.39;108126;1280;22541;-90
2023/09/01 12:03:52;;;;;;;3.50;1.80;;;;;;;18.89;74.92;96655.11;108127;1274;24196;-90
2023/09/01 12:06:27;;;;;;;4.30;1.80;;;;;;;18.94;75.52;96657.63;108030;1276;22543;-91
2023/09/01 12:09:13;;;;;;;4.20;1.60;;;;;;;18.96;74.97;96655.52;107953;1274;22544;-91
2023/09/01 12:11:56;;;;;;;2.60;1.60;;;;;;;18.97;74.10;96653.63;107910;1281;22778;-92
2023/09/01 12:14:24;;;;;;;5.70;2.40;;;;;;;18.98;75.25;96649.16;108078;1277;23302;-92
2023/09/01 12:16:53;;;;;;;2.80;1.70;;;;;;;18.99;75.02;96647.89;108005;1274;22573;-91
2023/09/01 12:19:24;;;;;;;3.20;1.80;;;;;;;19.02;74.08;96650.74;108005;1281;22946;-92
2023/09/01 12:21:51;;;;;;;3.10;1.80;;;;;;;19.05;73.73;96649.36;107942;1280;22502;-91
2023/09/01 12:24:18;;;;;;;3.50;1.90;;;;;;;19.10;74.94;96647.41;108006;1274;22886;-92
2023/09/01 12:26:46;;;;;;;4.60;2.10;;;;;;;19.17;74.67;96642.19;108008;1280;22492;-91
2023/09/01 12:29:13;;;;;;;2.90;1.70;;;;;;;19.20;74.12;96643.20;107914;1274;25557;-91
2023/09/01 12:31:42;;;;;;;3.80;1.80;;;;;;;19.19;73.93;96646.48;107973;1276;22618;-92
2023/09/01 12:34:08;;;;;;;3.80;1.80;;;;;;;19.19;74.08;96647.83;108001;1276;25371;-92
2023/09/01 12:36:35;;;;;;;5.50;2.00;;;;;;;19.21;74.27;96646.71;107884;1281;22623;-92
2023/09/01 12:39:02;;;;;;;3.60;2.00;;;;;;;19.22;74.20;96652.54;108064;1281;25306;-91
2023/09/01 12:41:28;;;;;;;5.30;2.70;;;;;;;19.23;74.43;96649.60;107943;1274;24240;-91
2023/09/01 12:43:55;;;;;;;5.40;3.20;;;;;;;19.24;74.90;96652.99;107880;1277;22540;-91
2023/09/01 12:46:22;;;;;;;4.20;1.60;;;;;;;19.24;74.31;96651.84;107886;1281;22614;-92
2023/09/01 12:48:49;;;;;;;4.00;1.90;;;;;;;19.24;74.26;96650.79;107976;1279;22591;-91
2023/09/01 12:51:15;;;;;;;4.20;2.10;;;;;;;19.25;73.77;96654.44;107799;1274;22556;-91
2023/09/01 12:53:41;;;;;;;4.40;1.90;;;;;;;19.23;73.85;96658.67;107947;1278;22702;-92
2023/09/01 12:56:12;;;;;;;3.70;2.20;;;;;;;19.21;72.96;96663.38;107893;1281;22835;-90
2023/09/01 12:58:38;;;;;;;3.80;1.90;;;;;;;19.21;73.97;96656.10;108007;1274;22556;-91
2023/09/01 13:01:05;;;;;;;3.60;2.20;;;;;;;19.21;73.88;96657.88;107978;1281;22495;-92